createdAt,value
2017-10-12T00:01:46.106Z,26.73
2017-10-12T00:04:13.622Z,27.10
2017-10-12T00:06:41.141Z,24.23
2017-10-12T00:09:08.746Z,24.60
2017-10-12T00:11:36.262Z,25.90
2017-10-12T00:14:03.796Z,23.33
2017-10-12T00:16:31.344Z,23.70
2017-10-12T00:18:58.890Z,24.20
2017-10-12T00:21:26.398Z,23.67
2017-10-12T00:23:54.119Z,22.53
2017-10-12T00:26:21.694Z,24.07
2017-10-12T00:28:49.247Z,23.37
2017-10-12T00:31:16.864Z,22.57
2017-10-12T00:33:44.413Z,23.40
2017-10-12T00:44:08.463Z,22.17
2017-10-12T00:46:36.043Z,21.00
2017-10-12T00:49:03.657Z,22.40
2017-10-12T00:51:31.258Z,22.53
2017-10-12T00:53:58.782Z,22.80
2017-10-12T00:56:26.360Z,20.90
2017-10-12T00:58:54.209Z,18.40
2017-10-12T01:01:21.740Z,16.40
2017-10-12T01:03:49.299Z,15.37
2017-10-12T01:06:16.898Z,14.07
2017-10-12T01:08:44.438Z,13.93
2017-10-12T01:11:11.980Z,15.90
2017-10-12T01:13:39.636Z,14.63
2017-10-12T01:16:07.158Z,14.33
2017-10-12T01:18:34.694Z,15.10
2017-10-12T01:21:02.324Z,15.20
2017-10-12T01:23:29.859Z,13.30
2017-10-12T01:25:57.420Z,13.30
2017-10-12T01:28:25.022Z,12.73
2017-10-12T01:30:52.547Z,12.07
2017-10-12T01:33:20.076Z,16.50
2017-10-12T01:35:47.669Z,16.17
2017-10-12T01:38:15.214Z,14.90
2017-10-12T01:40:42.757Z,14.10
2017-10-12T01:43:10.361Z,13.63
2017-10-12T01:45:37.914Z,15.37
2017-10-12T01:48:05.523Z,14.13
2017-10-12T01:50:33.112Z,14.87
2017-10-12T01:53:00.667Z,15.30
2017-10-12T01:55:28.341Z,14.00
2017-10-12T01:57:55.931Z,14.40
2017-10-12T02:00:23.478Z,15.57
2017-10-12T02:02:51.039Z,15.97
2017-10-12T02:05:18.659Z,15.27
2017-10-12T02:07:46.182Z,14.20
2017-10-12T02:10:13.771Z,14.60
2017-10-12T02:12:41.410Z,15.20
2017-10-12T02:15:08.993Z,14.57
2017-10-12T02:17:36.562Z,15.07
2017-10-12T02:20:04.173Z,16.17
2017-10-12T02:22:31.699Z,17.33
2017-10-12T02:24:59.241Z,16.33
2017-10-12T02:27:26.902Z,17.23
2017-10-12T02:29:54.436Z,16.57
2017-10-12T02:32:21.960Z,16.73
2017-10-12T02:34:49.530Z,16.17
2017-10-12T02:37:17.064Z,15.90
2017-10-12T02:39:44.604Z,16.80
2017-10-12T02:42:12.209Z,15.60
2017-10-12T02:44:39.730Z,14.27
2017-10-12T02:47:07.284Z,13.60
2017-10-12T02:49:34.850Z,13.57
2017-10-12T02:52:02.441Z,13.63
2017-10-12T02:54:29.983Z,13.07
2017-10-12T02:56:57.612Z,11.13
2017-10-12T02:59:25.164Z,11.43
2017-10-12T03:01:52.898Z,10.90
2017-10-12T03:04:20.500Z,11.33
2017-10-12T03:06:48.029Z,12.60
2017-10-12T03:09:15.616Z,11.37
2017-10-12T03:11:43.206Z,10.37
2017-10-12T03:14:10.865Z,11.10
2017-10-12T03:16:38.419Z,10.40
2017-10-12T03:19:06.014Z,12.27
2017-10-12T03:21:33.556Z,12.90
2017-10-12T03:24:01.087Z,10.80
2017-10-12T03:26:28.668Z,11.67
2017-10-12T03:28:56.196Z,10.60
2017-10-12T03:31:23.765Z,12.50
2017-10-12T03:33:51.365Z,12.20
2017-10-12T03:36:19.149Z,12.00
2017-10-12T03:38:46.761Z,12.20
2017-10-12T03:41:14.367Z,12.10
2017-10-12T03:44:30.015Z,12.50
2017-10-12T03:46:57.594Z,13.00
2017-10-12T03:49:25.427Z,15.03
2017-10-12T03:51:52.982Z,16.70
2017-10-12T03:54:20.669Z,21.70
2017-10-12T03:57:13.791Z,24.43
2017-10-12T03:59:42.291Z,23.13
2017-10-12T04:02:09.863Z,21.97
2017-10-12T04:04:37.394Z,20.70
2017-10-12T04:07:06.656Z,22.47
2017-10-12T04:09:34.259Z,21.83
2017-10-12T04:12:02.903Z,23.53
2017-10-12T04:14:30.449Z,22.73
2017-10-12T04:16:58.026Z,20.67
2017-10-12T04:19:25.629Z,23.37
2017-10-12T04:21:53.516Z,22.07
2017-10-12T04:24:21.110Z,21.10
2017-10-12T04:26:48.673Z,20.77
2017-10-12T04:29:16.212Z,19.50
2017-10-12T04:31:43.813Z,21.33
2017-10-12T04:34:11.413Z,21.20
2017-10-12T04:36:38.938Z,20.40
2017-10-12T04:39:06.527Z,21.40
2017-10-12T04:41:34.302Z,20.30
2017-10-12T04:44:01.814Z,19.17
2017-10-12T04:46:29.413Z,23.20
2017-10-12T04:48:56.963Z,25.27
2017-10-12T04:51:24.824Z,23.40
2017-10-12T04:53:52.410Z,24.10
2017-10-12T04:56:19.926Z,22.67
2017-10-12T04:58:47.471Z,21.77
2017-10-12T05:01:15.039Z,22.33
2017-10-12T05:03:42.563Z,21.47
2017-10-12T05:06:10.131Z,22.43
2017-10-12T05:08:37.753Z,21.90
2017-10-12T05:11:05.290Z,22.90
2017-10-12T05:13:32.875Z,20.37
2017-10-12T05:16:00.447Z,21.40
2017-10-12T05:18:27.976Z,21.37
2017-10-12T05:20:55.510Z,23.40
2017-10-12T05:23:23.078Z,23.97
2017-10-12T05:25:50.639Z,20.70
2017-10-12T05:28:18.173Z,19.47
2017-10-12T05:30:45.778Z,18.50
2017-10-12T05:33:13.341Z,17.17
2017-10-12T05:35:40.876Z,16.90
2017-10-12T05:38:08.501Z,16.37
2017-10-12T05:40:36.045Z,18.07
2017-10-12T05:43:03.603Z,19.13
2017-10-12T05:45:31.182Z,21.10
2017-10-12T05:47:58.696Z,20.27
2017-10-12T05:50:26.235Z,19.23
2017-10-12T05:52:53.798Z,18.60
2017-10-12T05:55:21.317Z,19.17
2017-10-12T05:57:48.847Z,19.40
2017-10-12T06:00:16.423Z,20.03
2017-10-12T06:02:43.971Z,20.60
2017-10-12T06:05:11.533Z,22.67
2017-10-12T06:07:39.102Z,20.43
2017-10-12T06:10:06.647Z,21.13
2017-10-12T06:12:34.185Z,21.00
2017-10-12T06:15:01.759Z,20.97
2017-10-12T06:17:29.316Z,22.63
2017-10-12T06:19:56.878Z,20.83
2017-10-12T06:22:24.443Z,21.83
2017-10-12T06:24:51.974Z,24.30
2017-10-12T06:27:19.496Z,23.00
2017-10-12T06:29:47.171Z,21.50
2017-10-12T06:32:14.764Z,22.20
2017-10-12T06:34:42.301Z,20.33
2017-10-12T06:37:09.827Z,23.23
2017-10-12T06:39:37.409Z,23.60
2017-10-12T06:42:05.007Z,23.80
2017-10-12T06:44:32.539Z,21.33
2017-10-12T06:47:00.104Z,20.67
2017-10-12T06:49:27.652Z,20.00
2017-10-12T06:51:55.166Z,19.23
2017-10-12T06:54:22.783Z,17.90
2017-10-12T06:56:50.327Z,21.10
2017-10-12T06:59:17.844Z,21.20
2017-10-12T07:01:45.474Z,23.50
2017-10-12T07:04:12.990Z,23.40
2017-10-12T07:06:40.510Z,22.00
2017-10-12T07:09:08.086Z,21.50
2017-10-12T07:11:39.841Z,22.53
2017-10-12T07:14:07.363Z,23.33
2017-10-12T07:16:34.936Z,24.17
2017-10-12T07:19:02.557Z,22.47
2017-10-12T07:21:30.094Z,24.30
2017-10-12T07:23:57.692Z,25.43
2017-10-12T07:26:25.247Z,24.97
2017-10-12T07:28:52.821Z,24.53
2017-10-12T07:31:20.414Z,24.50
2017-10-12T07:33:47.968Z,25.10
2017-10-12T07:36:15.508Z,24.73
2017-10-12T07:38:43.101Z,27.43
2017-10-12T07:41:10.632Z,26.57
2017-10-12T07:43:38.195Z,23.63
2017-10-12T07:46:05.788Z,23.83
2017-10-12T07:48:33.332Z,24.10
2017-10-12T07:51:00.856Z,24.93
2017-10-12T07:53:28.516Z,24.40
2017-10-12T07:55:56.058Z,25.93
2017-10-12T07:58:23.608Z,23.67
2017-10-12T08:00:51.194Z,24.50
2017-10-12T08:03:18.721Z,24.20
2017-10-12T08:05:46.249Z,22.70
2017-10-12T08:08:13.825Z,23.80
2017-10-12T08:10:41.365Z,23.97
2017-10-12T08:13:09.122Z,24.13
2017-10-12T08:15:36.686Z,23.37
2017-10-12T08:18:04.462Z,22.73
2017-10-12T08:20:31.984Z,23.07
2017-10-12T08:22:59.558Z,24.67
2017-10-12T08:25:27.102Z,22.27
2017-10-12T08:27:54.674Z,22.43
2017-10-12T08:30:22.373Z,23.40
2017-10-12T08:32:49.882Z,20.63
2017-10-12T08:35:17.405Z,23.30
2017-10-12T08:37:44.994Z,16.40
2017-10-12T08:40:12.513Z,16.13
2017-10-12T08:42:40.044Z,14.50
2017-10-12T08:45:07.649Z,13.87
2017-10-12T08:47:35.200Z,11.70
2017-10-12T08:50:02.740Z,14.80
2017-10-12T08:52:30.335Z,14.50
2017-10-12T08:54:57.889Z,13.50
2017-10-12T08:57:25.423Z,14.17
2017-10-12T08:59:53.072Z,15.20
2017-10-12T09:02:20.660Z,14.67
2017-10-12T09:04:48.184Z,15.80
2017-10-12T09:07:15.707Z,16.50
2017-10-12T09:09:43.287Z,16.60
2017-10-12T09:12:10.853Z,16.17
2017-10-12T09:14:38.374Z,19.20
2017-10-12T09:17:05.932Z,16.40
2017-10-12T09:19:33.456Z,15.87
2017-10-12T09:22:01.000Z,16.90
2017-10-12T09:24:28.622Z,16.53
2017-10-12T09:26:56.388Z,17.70
2017-10-12T09:29:23.928Z,15.73
2017-10-12T09:31:51.524Z,17.67
2017-10-12T09:34:19.067Z,15.13
2017-10-12T09:36:46.634Z,15.87
2017-10-12T09:39:14.246Z,16.50
2017-10-12T09:41:41.862Z,15.70
2017-10-12T09:44:09.447Z,13.90
2017-10-12T09:46:37.134Z,14.60
2017-10-12T09:49:04.692Z,14.40
2017-10-12T09:51:32.357Z,15.60
2017-10-12T09:53:59.942Z,15.60
2017-10-12T09:56:27.539Z,14.33
2017-10-12T09:58:55.097Z,15.40
2017-10-12T10:01:22.711Z,13.37
2017-10-12T10:03:50.287Z,13.80
2017-10-12T10:06:17.840Z,14.70
2017-10-12T10:08:45.419Z,13.57
2017-10-12T10:11:13.356Z,15.90
2017-10-12T10:13:40.875Z,14.60
2017-10-12T10:16:08.457Z,14.70
2017-10-12T10:18:35.994Z,14.10
2017-10-12T10:21:03.614Z,15.30
2017-10-12T10:23:31.195Z,13.90
2017-10-12T10:25:58.730Z,16.37
2017-10-12T10:28:26.552Z,14.17
2017-10-12T10:30:54.181Z,14.30
2017-10-12T10:33:21.751Z,13.97
2017-10-12T10:35:49.366Z,13.47
2017-10-12T10:38:16.934Z,12.50
2017-10-12T10:40:44.455Z,13.33
2017-10-12T10:43:11.977Z,11.83
2017-10-12T10:45:39.531Z,13.10
2017-10-12T10:48:07.054Z,12.40
2017-10-12T10:50:34.583Z,11.90
2017-10-12T10:53:02.193Z,10.63
2017-10-12T10:55:29.743Z,10.43
2017-10-12T10:57:57.269Z,9.93
2017-10-12T11:00:24.910Z,10.70
2017-10-12T11:02:52.588Z,12.10
2017-10-12T11:05:20.110Z,11.87
2017-10-12T11:07:47.687Z,8.67
2017-10-12T11:10:15.199Z,7.60
2017-10-12T11:12:42.732Z,8.53
2017-10-12T11:15:10.455Z,7.23
2017-10-12T11:17:38.048Z,7.03
2017-10-12T11:20:05.568Z,7.60
2017-10-12T11:22:33.132Z,6.67
2017-10-12T11:25:00.645Z,6.00
2017-10-12T11:27:28.445Z,5.97
2017-10-12T11:29:56.762Z,5.47
2017-10-12T11:32:24.336Z,5.90
2017-10-12T11:34:51.955Z,5.27
2017-10-12T11:37:19.514Z,5.83
2017-10-12T11:39:47.159Z,6.33
2017-10-12T11:42:14.743Z,6.60
2017-10-12T11:44:42.262Z,5.13
2017-10-12T11:47:10.352Z,4.57
2017-10-12T11:49:37.919Z,5.10
2017-10-12T11:52:05.933Z,5.10
2017-10-12T11:54:33.690Z,5.27
2017-10-12T11:57:02.141Z,5.47
2017-10-12T11:59:29.915Z,5.80
2017-10-12T12:01:57.521Z,5.80
2017-10-12T12:04:25.059Z,5.60
2017-10-12T12:06:52.596Z,5.40
2017-10-12T12:09:21.109Z,6.30
2017-10-12T12:11:48.668Z,5.37
2017-10-12T12:14:16.525Z,5.80
2017-10-12T12:16:44.103Z,6.00
2017-10-12T12:19:11.656Z,5.07
2017-10-12T12:21:39.216Z,5.30
2017-10-12T12:24:06.850Z,5.57
2017-10-12T12:26:34.373Z,5.50
2017-10-12T12:29:02.136Z,4.80
2017-10-12T12:31:29.714Z,4.87
2017-10-12T12:33:57.274Z,4.67
2017-10-12T12:36:25.067Z,5.00
2017-10-12T12:38:53.371Z,4.50
2017-10-12T12:41:20.963Z,5.70
2017-10-12T12:43:48.768Z,5.37
2017-10-12T12:46:16.358Z,4.97
2017-10-12T12:48:43.957Z,5.10
2017-10-12T12:51:11.466Z,4.63
2017-10-12T12:53:39.026Z,5.03
2017-10-12T12:56:07.070Z,4.50
2017-10-12T12:58:34.838Z,4.27
2017-10-12T13:01:02.473Z,5.03
2017-10-12T13:03:30.062Z,4.50
2017-10-12T13:05:58.134Z,4.70
2017-10-12T13:08:25.719Z,3.90
2017-10-12T13:10:53.329Z,4.20
2017-10-12T13:13:20.894Z,4.23
2017-10-12T13:15:48.466Z,4.40
2017-10-12T13:18:16.022Z,5.60
2017-10-12T13:20:43.616Z,5.53
2017-10-12T13:23:11.254Z,4.90
2017-10-12T13:25:38.777Z,5.33
2017-10-12T13:28:06.514Z,4.30
2017-10-12T13:30:35.045Z,5.13
2017-10-12T13:33:02.561Z,5.23
2017-10-12T13:35:30.161Z,4.80
2017-10-12T13:37:57.744Z,4.60
2017-10-12T13:40:25.296Z,4.63
2017-10-12T13:42:53.796Z,4.70
2017-10-12T13:45:21.369Z,4.60
2017-10-12T13:47:48.929Z,5.67
2017-10-12T13:50:16.453Z,5.50
2017-10-12T13:52:44.103Z,4.90
2017-10-12T13:55:11.929Z,5.30
2017-10-12T13:57:39.534Z,6.60
2017-10-12T14:00:08.267Z,5.00
2017-10-12T14:02:36.099Z,6.73
2017-10-12T14:05:03.693Z,6.30
2017-10-12T14:07:31.356Z,6.57
2017-10-12T14:09:58.952Z,6.80
2017-10-12T14:12:26.567Z,5.20
2017-10-12T14:14:54.258Z,3.83
2017-10-12T14:17:21.949Z,4.43
2017-10-12T14:19:49.502Z,3.70
2017-10-12T14:22:17.119Z,4.93
2017-10-12T14:24:44.965Z,4.10
2017-10-12T14:27:12.511Z,4.37
2017-10-12T14:29:40.071Z,4.77
2017-10-12T14:32:07.643Z,3.83
2017-10-12T14:34:35.200Z,3.80
2017-10-12T14:37:02.947Z,4.30
2017-10-12T14:39:30.555Z,4.90
2017-10-12T14:41:58.187Z,4.50
2017-10-12T14:44:27.045Z,3.90
2017-10-12T14:46:54.635Z,3.93
2017-10-12T14:49:22.173Z,4.23
2017-10-12T14:51:50.037Z,5.27
2017-10-12T14:54:17.603Z,4.73
2017-10-12T14:56:45.144Z,6.20
2017-10-12T14:59:12.893Z,4.77
2017-10-12T15:01:40.609Z,5.30
2017-10-12T15:04:08.154Z,7.03
2017-10-12T15:06:36.003Z,6.23
2017-10-12T15:09:03.686Z,5.50
2017-10-12T15:11:31.207Z,6.50
2017-10-12T15:13:58.722Z,5.30
2017-10-12T15:16:26.336Z,5.10
2017-10-12T15:18:54.138Z,5.30
2017-10-12T15:21:22.069Z,4.80
2017-10-12T15:23:49.703Z,4.90
2017-10-12T15:26:17.335Z,5.27
2017-10-12T15:28:45.105Z,5.90
2017-10-12T15:31:12.737Z,5.30
2017-10-12T15:33:40.250Z,4.90
2017-10-12T15:36:07.961Z,5.40
2017-10-12T15:38:35.522Z,5.90
2017-10-12T15:41:03.069Z,7.60
2017-10-12T15:43:31.391Z,8.27
2017-10-12T15:45:59.016Z,6.37
2017-10-12T15:48:26.598Z,6.73
2017-10-12T15:50:54.549Z,8.43
2017-10-12T15:53:22.208Z,8.10
2017-10-12T15:55:49.788Z,7.80
2017-10-12T15:58:17.327Z,7.67
2017-10-12T16:00:44.968Z,8.63
2017-10-12T16:03:12.527Z,7.93
2017-10-12T16:05:40.502Z,8.60
2017-10-12T16:08:08.146Z,7.80
2017-10-12T16:10:35.714Z,9.90
2017-10-12T16:13:03.315Z,10.93
2017-10-12T16:15:31.086Z,8.50
2017-10-12T16:17:58.975Z,8.53
2017-10-12T16:20:26.951Z,10.43
2017-10-12T16:22:57.559Z,10.80
2017-10-12T16:25:22.438Z,9.67
2017-10-12T16:27:50.706Z,9.93
2017-10-12T16:30:19.363Z,10.53
2017-10-12T16:35:15.543Z,14.87
2017-10-12T16:37:43.184Z,10.70
2017-10-12T16:42:38.467Z,14.73
2017-10-12T16:45:06.063Z,13.80
2017-10-12T16:47:33.635Z,15.50
2017-10-12T16:50:01.264Z,14.90
2017-10-12T16:52:30.291Z,16.53
2017-10-12T16:54:57.842Z,19.80
2017-10-12T16:57:25.467Z,117.63
2017-10-12T16:59:53.374Z,221.67
2017-10-12T17:02:21.408Z,378.17
2017-10-12T17:04:49.002Z,123.77
2017-10-12T17:07:17.713Z,194.13
2017-10-12T17:09:45.325Z,136.80
2017-10-12T17:12:12.908Z,60.20
2017-10-12T17:14:40.499Z,27.30
2017-10-12T17:17:08.169Z,17.70
2017-10-12T17:19:35.740Z,17.93
2017-10-12T17:22:03.384Z,21.10
2017-10-12T17:24:30.967Z,20.30
2017-10-12T17:26:58.563Z,21.03
2017-10-12T17:29:26.118Z,19.10
2017-10-12T17:31:53.813Z,21.07
2017-10-12T17:34:21.395Z,21.30
2017-10-12T17:36:48.936Z,23.93
2017-10-12T17:39:16.535Z,22.03
2017-10-12T17:41:44.093Z,22.00
2017-10-12T17:44:12.015Z,33.50
2017-10-12T17:46:39.681Z,29.20
2017-10-12T17:49:07.242Z,22.97
2017-10-12T17:51:34.761Z,20.70
2017-10-12T17:56:30.028Z,20.87
2017-10-12T17:58:57.589Z,27.80
2017-10-12T18:01:25.246Z,31.00
2017-10-12T18:03:52.839Z,34.37
2017-10-12T18:06:20.452Z,36.47
2017-10-12T18:08:48.034Z,35.60
2017-10-12T18:11:15.584Z,35.50
2017-10-12T18:13:43.101Z,25.10
2017-10-12T18:16:10.812Z,20.47
2017-10-12T18:18:38.685Z,18.60
2017-10-12T18:21:06.621Z,18.53
2017-10-12T18:23:34.782Z,19.40
2017-10-12T18:26:02.724Z,19.67
2017-10-12T18:28:30.934Z,19.00
2017-10-12T18:30:59.050Z,18.17
2017-10-12T18:33:27.077Z,19.23
2017-10-12T18:35:55.305Z,19.20
2017-10-12T18:38:23.485Z,19.37
2017-10-12T18:40:51.746Z,18.80
2017-10-12T18:43:19.679Z,20.10
2017-10-12T18:45:47.694Z,20.97
2017-10-12T18:48:15.715Z,20.03
2017-10-12T18:50:44.322Z,17.97
2017-10-12T18:53:12.528Z,17.77
2017-10-12T18:55:40.676Z,17.77
2017-10-12T18:58:08.849Z,22.97
2017-10-12T19:00:37.019Z,25.70
2017-10-12T19:03:05.131Z,17.80
2017-10-12T19:05:33.117Z,16.00
2017-10-12T19:08:02.285Z,16.43
2017-10-12T19:10:30.394Z,15.67
2017-10-12T19:12:58.704Z,16.90
2017-10-12T19:15:26.836Z,19.70
2017-10-12T19:17:54.858Z,19.07
2017-10-12T19:22:51.051Z,20.67
2017-10-12T19:25:19.797Z,23.03
2017-10-12T19:27:48.072Z,25.10
2017-10-12T19:30:16.153Z,26.90
2017-10-12T19:32:44.477Z,23.20
2017-10-12T19:35:12.195Z,24.47
2017-10-12T19:37:39.952Z,23.70
2017-10-12T19:40:07.788Z,29.23
2017-10-12T19:42:35.637Z,34.57
2017-10-12T19:45:03.510Z,32.73
2017-10-12T19:47:31.451Z,35.00
2017-10-12T19:50:00.246Z,50.17
2017-10-12T19:52:28.938Z,56.10
2017-10-12T19:54:56.826Z,70.50
2017-10-12T19:57:24.635Z,71.23
2017-10-12T19:59:52.466Z,70.10
2017-10-12T20:02:20.146Z,55.33
2017-10-12T20:04:47.959Z,46.80
2017-10-12T20:07:15.673Z,47.70
2017-10-12T20:09:43.428Z,49.73
2017-10-12T20:12:11.087Z,51.17
2017-10-12T20:14:38.706Z,61.90
2017-10-12T20:17:06.519Z,60.70
2017-10-12T20:19:34.232Z,58.30
2017-10-12T20:22:01.797Z,63.73
2017-10-12T20:24:29.423Z,73.73
2017-10-12T20:27:04.343Z,78.27
2017-10-12T20:29:31.961Z,69.90
2017-10-12T20:31:59.591Z,60.03
2017-10-12T20:34:27.189Z,60.20
2017-10-12T20:36:54.770Z,62.57
2017-10-12T20:39:22.478Z,61.13
2017-10-12T20:42:19.657Z,58.70
2017-10-12T20:44:17.674Z,58.07
2017-10-12T20:46:45.338Z,57.23
2017-10-12T20:49:12.869Z,56.93
2017-10-12T20:51:40.473Z,57.80
2017-10-12T20:54:08.052Z,61.70
2017-10-12T20:56:35.833Z,56.37
2017-10-12T20:59:03.393Z,60.13
2017-10-12T21:01:30.998Z,56.63
2017-10-12T21:03:58.531Z,61.07
2017-10-12T21:06:26.064Z,58.40
2017-10-12T21:08:53.679Z,55.90
2017-10-12T21:11:21.268Z,55.43
2017-10-12T21:13:49.026Z,59.20
2017-10-12T21:16:16.624Z,55.40
2017-10-12T21:18:44.206Z,50.10
2017-10-12T21:21:11.787Z,48.17
2017-10-12T21:23:39.387Z,51.67
2017-10-12T21:26:07.146Z,52.10
2017-10-12T21:28:34.683Z,50.80
2017-10-12T21:31:02.241Z,48.80
2017-10-12T21:33:29.861Z,44.30
2017-10-12T21:35:57.386Z,50.40
2017-10-12T21:38:24.994Z,50.90
2017-10-12T21:40:52.766Z,44.60
2017-10-12T21:43:20.347Z,37.47
2017-10-12T21:45:47.939Z,37.57
2017-10-12T21:48:15.458Z,30.90
2017-10-12T21:50:43.080Z,31.80
2017-10-12T21:53:10.649Z,32.87
2017-10-12T21:55:38.178Z,30.80
2017-10-12T21:58:05.714Z,33.63
2017-10-12T22:00:33.292Z,30.03
2017-10-12T22:03:01.051Z,28.80
2017-10-12T22:05:28.571Z,28.20
2017-10-12T22:07:56.243Z,23.43
2017-10-12T22:10:23.763Z,25.00
2017-10-12T22:12:51.370Z,28.90
2017-10-12T22:15:18.973Z,26.53
2017-10-12T22:17:46.751Z,29.17
2017-10-12T22:20:15.034Z,31.63
2017-10-12T22:22:43.452Z,29.77
2017-10-12T22:25:12.086Z,30.57
2017-10-12T22:27:39.687Z,28.50
2017-10-12T22:30:07.375Z,25.33
2017-10-12T22:32:34.947Z,23.97
2017-10-12T22:35:02.470Z,20.73
2017-10-12T22:37:32.019Z,19.83
2017-10-12T22:39:59.620Z,17.60
2017-10-12T22:42:27.173Z,16.60
2017-10-12T22:44:54.726Z,13.90
2017-10-12T22:47:22.595Z,13.10
2017-10-12T22:49:50.130Z,12.47
2017-10-12T22:52:17.744Z,14.17
2017-10-12T22:54:45.283Z,14.70
2017-10-12T22:57:12.837Z,12.90
2017-10-12T22:59:40.415Z,13.67
2017-10-12T23:02:08.288Z,12.80
2017-10-12T23:04:35.808Z,13.70
2017-10-12T23:07:03.339Z,13.73
2017-10-12T23:09:30.930Z,14.33
2017-10-12T23:11:58.505Z,13.03
2017-10-12T23:14:26.069Z,13.67
2017-10-12T23:16:53.698Z,13.57
2017-10-12T23:19:21.242Z,12.47
2017-10-12T23:21:48.781Z,13.73
2017-10-12T23:24:16.419Z,12.40
2017-10-12T23:26:43.945Z,13.37
2017-10-12T23:29:11.785Z,13.83
2017-10-12T23:31:39.379Z,12.53
2017-10-12T23:34:06.975Z,14.47
2017-10-12T23:36:34.568Z,13.13
2017-10-12T23:39:02.158Z,13.70
2017-10-12T23:41:29.801Z,14.80
2017-10-12T23:43:57.578Z,14.30
2017-10-12T23:46:25.145Z,15.50
2017-10-12T23:48:52.673Z,14.40
2017-10-12T23:51:20.253Z,14.93
2017-10-12T23:53:47.878Z,14.50
2017-10-12T23:56:15.431Z,13.87
2017-10-12T23:58:43.248Z,14.33
